createdAt,value
2018-08-22T00:00:15.576Z,5.27
2018-08-22T00:02:44.693Z,5.40
2018-08-22T00:05:14.292Z,5.43
2018-08-22T00:07:43.632Z,6.47
2018-08-22T00:10:12.121Z,5.57
2018-08-22T00:12:40.458Z,5.80
2018-08-22T00:15:08.799Z,6.20
2018-08-22T00:17:38.723Z,6.27
2018-08-22T00:20:09.323Z,5.77
2018-08-22T00:22:39.632Z,6.37
2018-08-22T00:25:08.811Z,5.90
2018-08-22T00:27:38.198Z,5.63
2018-08-22T00:30:07.276Z,6.03
2018-08-22T00:32:38.076Z,6.10
2018-08-22T00:35:07.296Z,6.27
2018-08-22T00:37:36.108Z,6.13
2018-08-22T00:40:04.520Z,5.73
2018-08-22T00:42:33.704Z,6.47
2018-08-22T00:45:03.308Z,6.37
2018-08-22T00:47:33.818Z,5.63
2018-08-22T00:50:02.975Z,6.27
2018-08-22T00:52:33.736Z,6.17
2018-08-22T00:55:04.156Z,5.93
2018-08-22T00:57:33.341Z,6.30
2018-08-22T01:00:03.259Z,7.37
2018-08-22T01:02:32.055Z,7.23
2018-08-22T01:05:00.824Z,7.17
2018-08-22T01:07:33.007Z,7.43
2018-08-22T01:10:02.831Z,7.57
2018-08-22T01:12:32.524Z,7.73
2018-08-22T01:15:00.888Z,7.20
2018-08-22T01:17:31.905Z,8.03
2018-08-22T01:20:03.057Z,7.73
2018-08-22T01:22:31.892Z,7.47
2018-08-22T01:25:00.261Z,7.70
2018-08-22T01:27:29.375Z,7.83
2018-08-22T01:29:58.763Z,8.03
2018-08-22T01:32:30.219Z,8.23
2018-08-22T01:35:00.719Z,8.20
2018-08-22T01:37:29.851Z,8.27
2018-08-22T01:39:58.795Z,7.50
2018-08-22T01:42:27.119Z,7.33
2018-08-22T01:44:55.899Z,6.70
2018-08-22T01:47:24.556Z,6.80
2018-08-22T01:49:53.378Z,8.53
2018-08-22T01:52:24.625Z,7.07
2018-08-22T01:54:54.197Z,7.43
2018-08-22T01:57:23.560Z,8.20
2018-08-22T01:59:53.768Z,8.10
2018-08-22T02:02:23.089Z,7.40
2018-08-22T02:04:52.252Z,7.20
2018-08-22T02:07:22.074Z,6.60
2018-08-22T02:09:50.707Z,6.87
2018-08-22T02:12:22.999Z,7.10
2018-08-22T02:14:52.823Z,8.10
2018-08-22T02:17:21.945Z,8.00
2018-08-22T02:19:52.716Z,7.57
2018-08-22T02:22:21.860Z,7.57
2018-08-22T02:24:50.700Z,6.83
2018-08-22T02:27:22.330Z,6.23
2018-08-22T02:29:55.505Z,6.37
2018-08-22T02:32:23.850Z,7.03
2018-08-22T02:34:53.511Z,7.13
2018-08-22T02:37:26.417Z,6.87
2018-08-22T02:39:57.828Z,7.27
2018-08-22T02:42:28.320Z,6.40
2018-08-22T02:45:01.379Z,6.60
2018-08-22T02:47:41.009Z,6.53
2018-08-22T02:50:09.975Z,6.40
2018-08-22T02:52:38.883Z,5.83
2018-08-22T02:55:07.327Z,5.90
2018-08-22T02:57:36.488Z,5.97
2018-08-22T03:00:10.352Z,6.33
2018-08-22T03:02:39.708Z,6.33
2018-08-22T03:05:11.366Z,6.20
2018-08-22T03:07:41.017Z,6.57
2018-08-22T03:10:12.220Z,5.50
2018-08-22T03:12:44.544Z,5.53
2018-08-22T03:15:12.910Z,6.27
2018-08-22T03:17:42.531Z,6.53
2018-08-22T03:20:11.403Z,6.43
2018-08-22T03:22:40.380Z,6.03
2018-08-22T03:25:10.302Z,6.00
2018-08-22T03:27:41.424Z,5.77
2018-08-22T03:30:09.791Z,6.20
2018-08-22T03:32:41.228Z,5.80
2018-08-22T03:35:14.856Z,6.40
2018-08-22T03:37:43.892Z,6.30
2018-08-22T03:40:13.560Z,7.00
2018-08-22T03:42:43.784Z,6.10
2018-08-22T03:45:12.240Z,6.60
2018-08-22T03:47:41.534Z,6.37
2018-08-22T03:50:11.261Z,6.77
2018-08-22T03:52:40.952Z,6.20
2018-08-22T03:55:10.118Z,6.67
2018-08-22T03:57:39.701Z,5.97
2018-08-22T04:00:08.183Z,6.30
2018-08-22T04:02:37.495Z,6.40
2018-08-22T04:05:07.620Z,6.43
2018-08-22T04:07:37.379Z,6.10
2018-08-22T04:10:07.732Z,6.47
2018-08-22T04:12:37.864Z,5.80
2018-08-22T04:15:09.717Z,6.97
2018-08-22T04:17:40.615Z,6.30
2018-08-22T04:20:09.871Z,6.40
2018-08-22T04:22:39.355Z,5.90
2018-08-22T04:25:10.392Z,6.37
2018-08-22T04:27:39.363Z,6.77
2018-08-22T04:30:09.104Z,5.93
2018-08-22T04:32:37.537Z,6.23
2018-08-22T04:35:06.020Z,6.53
2018-08-22T04:37:34.376Z,6.70
2018-08-22T04:40:03.584Z,6.73
2018-08-22T04:42:32.584Z,6.23
2018-08-22T04:45:02.592Z,6.40
2018-08-22T04:47:31.717Z,6.80
2018-08-22T04:50:00.146Z,6.10
2018-08-22T04:52:30.683Z,6.03
2018-08-22T04:55:00.771Z,6.57
2018-08-22T04:57:32.100Z,6.17
2018-08-22T05:00:02.639Z,5.93
2018-08-22T05:02:33.707Z,6.50
2018-08-22T05:05:02.970Z,6.57
2018-08-22T05:07:33.212Z,6.23
2018-08-22T05:10:03.793Z,6.20
2018-08-22T05:12:32.096Z,5.80
2018-08-22T05:15:00.708Z,6.13
2018-08-22T05:17:30.649Z,6.50
2018-08-22T05:20:00.745Z,7.37
2018-08-22T05:22:29.200Z,7.43
2018-08-22T05:24:59.433Z,6.60
2018-08-22T05:27:28.765Z,5.97
2018-08-22T05:29:57.588Z,6.60
2018-08-22T05:32:27.703Z,7.57
2018-08-22T05:34:56.039Z,6.53
2018-08-22T05:37:25.656Z,5.73
2018-08-22T05:39:55.125Z,5.73
2018-08-22T05:42:25.940Z,5.70
2018-08-22T05:44:54.351Z,5.73
2018-08-22T05:47:24.154Z,5.33
2018-08-22T05:49:52.483Z,5.33
2018-08-22T05:52:22.392Z,5.23
2018-08-22T05:54:50.994Z,5.33
2018-08-22T05:57:19.399Z,5.83
2018-08-22T05:59:47.824Z,5.33
2018-08-22T06:02:18.447Z,5.93
2018-08-22T06:04:47.753Z,6.27
2018-08-22T06:07:17.195Z,6.30
2018-08-22T06:09:46.802Z,6.80
2018-08-22T06:12:15.167Z,7.73
2018-08-22T06:14:44.336Z,6.03
2018-08-22T06:17:14.727Z,6.23
2018-08-22T06:19:43.610Z,6.20
2018-08-22T06:22:12.536Z,6.60
2018-08-22T06:24:43.238Z,7.13
2018-08-22T06:27:11.611Z,7.13
2018-08-22T06:29:40.158Z,8.70
2018-08-22T06:32:08.504Z,7.67
2018-08-22T06:34:37.227Z,7.80
2018-08-22T06:37:08.072Z,7.93
2018-08-22T06:39:37.639Z,6.70
2018-08-22T06:42:06.308Z,7.73
2018-08-22T06:44:35.676Z,7.20
2018-08-22T06:47:05.451Z,6.23
2018-08-22T06:49:33.793Z,7.63
2018-08-22T06:52:02.260Z,8.33
2018-08-22T06:54:30.906Z,8.60
2018-08-22T06:56:59.756Z,8.63
2018-08-22T06:59:28.080Z,7.43
2018-08-22T07:01:56.417Z,6.47
2018-08-22T07:04:25.163Z,7.03
2018-08-22T07:06:53.764Z,7.23
2018-08-22T07:09:22.310Z,6.47
2018-08-22T07:11:50.797Z,7.03
2018-08-22T07:14:19.717Z,6.53
2018-08-22T07:16:48.683Z,6.70
2018-08-22T07:19:17.920Z,5.97
2018-08-22T07:21:46.265Z,6.57
2018-08-22T07:24:17.080Z,6.00
2018-08-22T07:26:46.776Z,6.40
2018-08-22T07:29:15.113Z,6.30
2018-08-22T07:31:45.105Z,6.00
2018-08-22T07:34:15.541Z,5.90
2018-08-22T07:36:45.240Z,5.93
2018-08-22T07:39:14.612Z,5.73
2018-08-22T07:41:43.056Z,6.28
2018-08-22T07:44:12.160Z,6.00
2018-08-22T07:46:41.304Z,5.40
2018-08-22T07:49:10.438Z,5.60
2018-08-22T07:51:40.261Z,5.70
2018-08-22T07:54:09.280Z,6.50
2018-08-22T07:56:38.828Z,5.93
2018-08-22T07:59:12.232Z,5.97
2018-08-22T08:01:40.765Z,5.77
2018-08-22T08:04:11.364Z,6.40
2018-08-22T08:06:40.618Z,6.60
2018-08-22T08:09:12.347Z,7.12
2018-08-22T08:11:40.947Z,6.63
2018-08-22T08:14:10.007Z,6.60
2018-08-22T08:16:39.518Z,6.53
2018-08-22T08:19:09.342Z,5.73
2018-08-22T08:21:39.437Z,5.78
2018-08-22T08:24:09.475Z,5.77
2018-08-22T08:26:38.940Z,6.20
2018-08-22T08:29:08.320Z,5.97
2018-08-22T08:31:37.676Z,5.73
2018-08-22T08:34:06.082Z,5.23
2018-08-22T08:36:34.491Z,6.90
2018-08-22T08:39:03.863Z,6.30
2018-08-22T08:41:35.549Z,5.67
2018-08-22T08:44:04.579Z,6.08
2018-08-22T08:46:32.912Z,5.35
2018-08-22T08:49:01.585Z,5.72
2018-08-22T08:51:32.311Z,5.45
2018-08-22T08:54:04.653Z,5.92
2018-08-22T08:56:33.892Z,5.80
2018-08-22T08:59:03.583Z,5.92
2018-08-22T09:01:32.918Z,5.60
2018-08-22T09:04:01.924Z,5.30
2018-08-22T09:06:30.386Z,6.53
2018-08-22T09:09:00.239Z,6.37
2018-08-22T09:11:28.572Z,5.45
2018-08-22T09:13:57.854Z,5.80
2018-08-22T09:16:27.010Z,5.67
2018-08-22T09:18:57.900Z,5.15
2018-08-22T09:21:28.130Z,5.80
2018-08-22T09:23:59.097Z,5.55
2018-08-22T09:26:28.016Z,5.25
2018-08-22T09:28:57.915Z,5.90
2018-08-22T09:31:27.577Z,5.75
2018-08-22T09:33:56.290Z,5.30
2018-08-22T09:36:28.240Z,5.03
2018-08-22T09:38:57.444Z,5.28
2018-08-22T09:41:26.692Z,5.45
2018-08-22T09:43:56.219Z,4.90
2018-08-22T09:46:25.357Z,5.40
2018-08-22T09:48:54.867Z,4.60
2018-08-22T09:51:23.532Z,5.37
2018-08-22T09:53:51.884Z,5.97
2018-08-22T09:56:24.504Z,5.35
2018-08-22T09:58:53.873Z,5.20
2018-08-22T10:01:28.941Z,5.22
2018-08-22T10:03:59.197Z,5.08
2018-08-22T10:06:37.949Z,5.08
2018-08-22T10:09:11.188Z,5.20
2018-08-22T10:11:41.359Z,5.67
2018-08-22T10:14:11.523Z,6.20
2018-08-22T10:16:40.572Z,5.08
2018-08-22T10:19:09.971Z,5.65
2018-08-22T10:21:39.726Z,5.60
2018-08-22T10:24:10.063Z,5.20
2018-08-22T10:26:38.808Z,5.92
2018-08-22T10:29:07.707Z,5.05
2018-08-22T10:31:36.051Z,5.05
2018-08-22T10:34:05.844Z,5.45
2018-08-22T10:36:35.203Z,5.67
2018-08-22T10:39:06.129Z,4.90
2018-08-22T10:41:37.577Z,5.00
2018-08-22T10:44:06.608Z,4.42
2018-08-22T10:46:36.095Z,4.45
2018-08-22T10:49:04.737Z,5.12
2018-08-22T10:51:33.743Z,4.80
2018-08-22T10:54:03.371Z,4.50
2018-08-22T10:56:31.960Z,4.87
2018-08-22T10:59:01.275Z,4.35
2018-08-22T11:01:30.135Z,4.67
2018-08-22T11:03:59.763Z,4.62
2018-08-22T11:06:28.796Z,4.80
2018-08-22T11:09:00.019Z,4.60
2018-08-22T11:11:29.268Z,4.30
2018-08-22T11:13:58.848Z,4.10
2018-08-22T11:16:28.482Z,4.28
2018-08-22T11:18:58.680Z,3.98
2018-08-22T11:21:39.167Z,4.33
2018-08-22T11:24:19.886Z,4.08
2018-08-22T11:27:00.301Z,4.15
2018-08-22T11:29:39.943Z,4.70
2018-08-22T11:32:19.764Z,4.00
2018-08-22T11:34:49.102Z,4.00
2018-08-22T11:37:20.040Z,4.12
2018-08-22T11:39:52.176Z,4.35
2018-08-22T11:42:22.328Z,4.10
2018-08-22T11:44:51.192Z,4.62
2018-08-22T11:47:20.236Z,4.25
2018-08-22T11:49:49.160Z,4.35
2018-08-22T11:52:17.481Z,4.85
2018-08-22T11:54:46.183Z,4.03
2018-08-22T11:57:14.923Z,4.20
2018-08-22T11:59:43.320Z,4.22
2018-08-22T12:02:13.889Z,4.22
2018-08-22T12:04:42.974Z,4.28
2018-08-22T12:07:11.536Z,4.70
2018-08-22T12:09:39.901Z,4.20
2018-08-22T12:12:09.776Z,4.70
2018-08-22T12:14:41.931Z,4.15
2018-08-22T12:17:10.540Z,4.03
2018-08-22T12:19:38.879Z,4.20
2018-08-22T12:22:11.644Z,4.10
2018-08-22T12:24:41.378Z,4.55
2018-08-22T12:27:10.047Z,4.97
2018-08-22T12:29:38.520Z,4.58
2018-08-22T12:32:09.276Z,4.17
2018-08-22T12:34:40.901Z,4.58
2018-08-22T12:37:09.212Z,4.47
2018-08-22T12:39:37.952Z,4.62
2018-08-22T12:42:08.888Z,4.60
2018-08-22T12:44:37.397Z,4.35
2018-08-22T12:47:06.667Z,4.37
2018-08-22T12:49:35.683Z,3.75
2018-08-22T12:52:05.745Z,3.75
2018-08-22T12:54:34.839Z,3.90
2018-08-22T12:57:04.481Z,4.10
2018-08-22T12:59:33.565Z,4.20
2018-08-22T13:02:02.180Z,4.25
2018-08-22T13:04:30.534Z,4.50
2018-08-22T13:07:00.438Z,4.37
2018-08-22T13:09:30.683Z,4.00
2018-08-22T13:12:01.520Z,3.87
2018-08-22T13:14:30.393Z,4.35
2018-08-22T13:17:00.659Z,4.80
2018-08-22T13:19:29.924Z,4.03
2018-08-22T13:21:58.736Z,4.53
2018-08-22T13:24:28.364Z,4.08
2018-08-22T13:26:56.988Z,4.62
2018-08-22T13:29:26.091Z,4.30
2018-08-22T13:31:54.756Z,4.72
2018-08-22T13:34:23.874Z,4.50
2018-08-22T13:36:53.892Z,4.60
2018-08-22T13:39:22.334Z,5.00
2018-08-22T13:41:50.775Z,4.30
2018-08-22T13:44:19.201Z,4.60
2018-08-22T13:46:48.167Z,5.28
2018-08-22T13:49:18.061Z,4.70
2018-08-22T13:51:47.630Z,4.72
2018-08-22T13:54:18.884Z,5.00
2018-08-22T13:56:48.139Z,4.70
2018-08-22T13:59:19.662Z,4.58
2018-08-22T14:01:50.339Z,4.53
2018-08-22T14:04:20.524Z,4.47
2018-08-22T14:06:50.759Z,5.50
2018-08-22T14:09:19.849Z,4.67
2018-08-22T14:11:49.253Z,5.37
2018-08-22T14:14:18.656Z,5.35
2018-08-22T14:16:48.153Z,5.53
2018-08-22T14:19:17.068Z,6.00
2018-08-22T14:21:46.576Z,4.97
2018-08-22T14:24:16.153Z,5.05
2018-08-22T14:26:49.369Z,5.25
2018-08-22T14:29:20.132Z,5.40
2018-08-22T14:31:50.221Z,5.33
2018-08-22T14:34:20.921Z,5.55
2018-08-22T14:36:50.202Z,5.50
2018-08-22T14:39:20.330Z,6.08
2018-08-22T14:41:49.177Z,5.60
2018-08-22T14:44:20.610Z,5.83
2018-08-22T14:47:20.192Z,5.67
2018-08-22T14:49:48.515Z,5.65
2018-08-22T14:52:20.169Z,5.55
2018-08-22T14:54:48.605Z,5.78
2018-08-22T14:57:18.490Z,5.45
2018-08-22T14:59:48.636Z,5.70
2018-08-22T15:02:18.528Z,5.80
2018-08-22T15:04:48.258Z,5.97
2018-08-22T15:07:18.424Z,5.45
2018-08-22T15:09:46.876Z,6.62
2018-08-22T15:12:18.173Z,5.87
2018-08-22T15:14:47.100Z,5.92
2018-08-22T15:17:15.701Z,5.50
2018-08-22T15:19:46.362Z,5.60
2018-08-22T15:22:16.881Z,5.67
2018-08-22T15:24:47.059Z,5.08
2018-08-22T15:27:17.488Z,5.40
2018-08-22T15:29:46.198Z,6.55
2018-08-22T15:32:16.090Z,5.58
2018-08-22T15:34:51.599Z,5.95
2018-08-22T15:37:21.064Z,5.83
2018-08-22T15:39:49.772Z,6.15
2018-08-22T15:42:19.392Z,5.97
2018-08-22T15:44:49.046Z,5.92
2018-08-22T15:47:18.935Z,5.67
2018-08-22T15:49:48.216Z,5.85
2018-08-22T15:52:17.805Z,5.92
2018-08-22T15:55:18.292Z,5.67
2018-08-22T15:58:01.335Z,5.50
2018-08-22T16:00:35.956Z,5.47
2018-08-22T16:03:05.572Z,5.70
2018-08-22T16:05:34.895Z,4.95
2018-08-22T16:08:04.347Z,5.30
2018-08-22T16:10:33.269Z,5.55
2018-08-22T16:13:03.580Z,5.15
2018-08-22T16:15:35.919Z,5.40
2018-08-22T16:18:06.435Z,5.47
2018-08-22T16:20:50.587Z,5.33
2018-08-22T16:23:19.471Z,4.93
2018-08-22T16:25:51.248Z,5.60
2018-08-22T16:28:22.058Z,5.22
2018-08-22T16:30:57.617Z,5.07
2018-08-22T16:33:27.338Z,5.30
2018-08-22T16:35:57.419Z,5.23
2018-08-22T16:38:25.860Z,5.17
2018-08-22T16:40:55.133Z,5.00
2018-08-22T16:43:40.172Z,5.23
2018-08-22T16:46:11.600Z,5.10
2018-08-22T16:48:42.085Z,5.20
2018-08-22T16:51:11.365Z,5.07
2018-08-22T16:53:41.581Z,5.60
2018-08-22T16:56:11.260Z,5.10
2018-08-22T16:58:39.612Z,5.13
2018-08-22T17:01:10.029Z,5.50
2018-08-22T17:03:40.545Z,4.80
2018-08-22T17:06:16.724Z,5.47
2018-08-22T17:08:46.172Z,4.90
2018-08-22T17:11:16.208Z,5.23
2018-08-22T17:13:49.732Z,4.90
2018-08-22T17:16:19.793Z,4.83
2018-08-22T17:18:48.839Z,4.77
2018-08-22T17:21:17.902Z,5.10
2018-08-22T17:23:47.516Z,5.17
2018-08-22T17:26:22.232Z,5.03
2018-08-22T17:28:54.160Z,5.07
2018-08-22T17:31:24.341Z,6.20
2018-08-22T17:33:58.265Z,5.70
2018-08-22T17:36:27.649Z,5.47
2018-08-22T17:39:03.336Z,4.70
2018-08-22T17:41:34.649Z,4.97
2018-08-22T17:44:12.497Z,4.97
2018-08-22T17:46:52.292Z,4.50
2018-08-22T17:49:24.939Z,5.27
2018-08-22T17:52:08.132Z,5.40
2018-08-22T17:54:37.822Z,6.97
2018-08-22T17:57:24.827Z,6.00
2018-08-22T17:59:57.051Z,5.17
2018-08-22T18:02:28.211Z,6.60
2018-08-22T18:05:08.740Z,7.53
2018-08-22T18:07:38.917Z,5.37
2018-08-22T18:10:08.820Z,5.87
2018-08-22T18:12:37.888Z,5.67
2018-08-22T18:15:09.853Z,5.33
2018-08-22T18:17:39.468Z,5.13
2018-08-22T18:20:09.096Z,5.43
2018-08-22T18:22:39.893Z,5.00
2018-08-22T18:25:08.983Z,5.90
2018-08-22T18:27:38.488Z,5.90
2018-08-22T18:30:11.747Z,5.60
2018-08-22T18:32:40.954Z,6.30
2018-08-22T18:35:12.889Z,5.87
2018-08-22T18:37:43.229Z,5.60
2018-08-22T18:40:25.679Z,5.90
2018-08-22T18:43:01.292Z,5.97
2018-08-22T18:45:33.011Z,5.40
2018-08-22T18:48:06.047Z,5.80
2018-08-22T18:50:35.407Z,5.10
2018-08-22T18:53:05.233Z,6.80
2018-08-22T18:55:35.983Z,5.37
2018-08-22T18:58:06.788Z,6.40
2018-08-22T19:00:37.367Z,5.73
2018-08-22T19:03:06.711Z,7.30
2018-08-22T19:05:36.741Z,5.53
2018-08-22T19:08:08.717Z,5.10
2018-08-22T19:10:38.781Z,5.57
2018-08-22T19:13:12.447Z,5.53
2018-08-22T19:15:42.860Z,4.77
2018-08-22T19:18:11.641Z,4.40
2018-08-22T19:20:40.162Z,4.97
2018-08-22T19:23:09.172Z,4.83
2018-08-22T19:25:39.786Z,4.80
2018-08-22T19:28:08.252Z,4.80
2018-08-22T19:30:40.596Z,4.33
2018-08-22T19:33:13.240Z,7.43
2018-08-22T19:35:42.601Z,4.90
2018-08-22T19:38:12.056Z,5.00
2018-08-22T19:40:42.963Z,5.20
2018-08-22T19:43:13.560Z,4.87
2018-08-22T19:45:42.879Z,4.53
2018-08-22T19:48:12.044Z,4.73
2018-08-22T19:50:41.836Z,4.53
2018-08-22T19:53:12.500Z,4.60
2018-08-22T19:55:40.979Z,5.30
2018-08-22T19:58:10.156Z,5.13
2018-08-22T20:00:40.221Z,4.63
2018-08-22T20:03:09.540Z,4.90
2018-08-22T20:05:51.221Z,4.60
2018-08-22T20:08:24.296Z,5.00
2018-08-22T20:10:52.768Z,5.03
2018-08-22T20:13:21.141Z,5.47
2018-08-22T20:15:50.832Z,6.00
2018-08-22T20:18:20.324Z,5.03
2018-08-22T20:20:51.224Z,5.57
2018-08-22T20:23:19.753Z,5.97
2018-08-22T20:25:48.072Z,5.10
2018-08-22T20:28:17.273Z,5.33
2018-08-22T20:30:49.417Z,5.70
2018-08-22T20:33:19.802Z,5.83
2018-08-22T20:35:51.216Z,5.43
2018-08-22T20:38:19.567Z,6.10
2018-08-22T20:40:52.804Z,5.73
2018-08-22T20:43:25.729Z,6.20
2018-08-22T20:45:55.055Z,5.70
2018-08-22T20:48:26.071Z,5.67
2018-08-22T20:50:55.151Z,5.63
2018-08-22T20:53:24.716Z,4.87
2018-08-22T20:55:53.876Z,4.70
2018-08-22T20:58:27.003Z,5.13
2018-08-22T21:00:56.368Z,5.63
2018-08-22T21:03:25.524Z,5.63
2018-08-22T21:05:54.054Z,5.50
2018-08-22T21:08:24.490Z,6.00
2018-08-22T21:10:53.870Z,5.97
2018-08-22T21:29:05.713Z,5.33
2018-08-22T21:31:38.274Z,6.10
2018-08-22T21:34:14.875Z,5.53
2018-08-22T21:36:45.686Z,5.90
2018-08-22T21:39:20.372Z,6.10
2018-08-22T21:41:50.499Z,5.60
2018-08-22T21:44:22.500Z,5.80
2018-08-22T21:46:56.905Z,6.33
2018-08-22T21:49:26.624Z,5.93
2018-08-22T21:52:00.585Z,4.90
2018-08-22T21:54:33.125Z,5.40
2018-08-22T21:57:01.467Z,5.47
2018-08-22T21:59:30.625Z,6.00
2018-08-22T22:02:07.706Z,5.87
2018-08-22T22:04:42.235Z,6.43
2018-08-22T22:07:12.625Z,6.77
2018-08-22T22:09:41.596Z,6.70
2018-08-22T22:12:15.675Z,7.07
2018-08-22T22:14:46.973Z,6.60
2018-08-22T22:17:17.020Z,7.00
2018-08-22T22:19:47.244Z,6.60
2018-08-22T22:22:18.927Z,6.07
2018-08-22T22:25:04.514Z,5.13
2018-08-22T22:27:34.899Z,6.10
2018-08-22T22:30:06.358Z,5.87
2018-08-22T22:32:34.901Z,6.13
2018-08-22T22:35:04.436Z,6.13
2018-08-22T22:37:36.309Z,6.57
2018-08-22T22:40:06.308Z,5.50
2018-08-22T22:42:36.559Z,6.60
2018-08-22T22:45:05.192Z,6.07
2018-08-22T22:47:35.334Z,5.87
2018-08-22T22:50:05.029Z,6.40
2018-08-22T22:52:39.204Z,6.07
2018-08-22T22:55:10.531Z,6.53
2018-08-22T22:57:40.099Z,6.63
2018-08-22T23:00:10.880Z,6.13
2018-08-22T23:02:41.811Z,6.03
2018-08-22T23:05:11.943Z,6.53
2018-08-22T23:07:41.344Z,6.90
2018-08-22T23:10:12.416Z,6.47
2018-08-22T23:12:47.777Z,6.17
2018-08-22T23:15:21.311Z,6.87
2018-08-22T23:17:58.004Z,6.07
2018-08-22T23:20:35.127Z,6.17
2018-08-22T23:23:09.896Z,6.27
2018-08-22T23:25:40.333Z,7.67
2018-08-22T23:28:08.912Z,6.30
2018-08-22T23:30:37.946Z,6.47
2018-08-22T23:33:07.044Z,7.03
2018-08-22T23:35:37.518Z,6.10
2018-08-22T23:38:10.785Z,5.83
2018-08-22T23:40:41.727Z,6.10
2018-08-22T23:43:12.662Z,5.73
2018-08-22T23:45:50.821Z,5.70
2018-08-22T23:48:26.855Z,5.70
2018-08-22T23:51:02.635Z,6.60
2018-08-22T23:53:38.097Z,6.37
2018-08-22T23:56:15.594Z,6.40
2018-08-22T23:58:46.172Z,6.10
